createdAt,value
2018-05-12T02:00:04.620Z,1016.58
2018-05-12T02:01:04.250Z,1016.61
2018-05-12T02:02:04.262Z,1016.6
2018-05-12T02:03:04.287Z,1016.63
2018-05-12T02:04:04.663Z,1016.62
2018-05-12T02:05:05.074Z,1016.59
2018-05-12T02:06:05.096Z,1016.57
2018-05-12T02:07:05.127Z,1016.55
2018-05-12T02:08:05.160Z,1016.55
2018-05-12T02:09:05.186Z,1016.56
2018-05-12T02:10:05.201Z,1016.54
2018-05-12T02:11:05.632Z,1016.53
2018-05-12T02:12:05.664Z,1016.58
2018-05-12T02:13:05.793Z,1016.59
2018-05-12T02:14:05.923Z,1016.59
2018-05-12T02:15:06.320Z,1016.58
2018-05-12T02:16:06.334Z,1016.57
2018-05-12T02:17:06.488Z,1016.59
2018-05-12T02:18:06.901Z,1016.6
2018-05-12T02:19:07.052Z,1016.61
2018-05-12T02:20:07.336Z,1016.63
2018-05-12T02:21:07.362Z,1016.66
2018-05-12T02:22:07.775Z,1016.64
2018-05-12T02:23:07.895Z,1016.63
2018-05-12T02:24:07.903Z,1016.64
2018-05-12T02:25:07.939Z,1016.64
2018-05-12T02:26:07.975Z,1016.66
2018-05-12T02:27:07.991Z,1016.65
2018-05-12T02:28:08.177Z,1016.63
2018-05-12T02:29:08.206Z,1016.6
2018-05-12T02:30:08.235Z,1016.65
2018-05-12T02:31:08.263Z,1016.6
2018-05-12T02:32:08.287Z,1016.59
2018-05-12T02:33:08.747Z,1016.61
2018-05-12T02:34:08.775Z,1016.61
2018-05-12T02:35:08.814Z,1016.6
2018-05-12T02:36:08.958Z,1016.59
2018-05-12T02:37:09.356Z,1016.6
2018-05-12T02:38:09.484Z,1016.58
2018-05-12T02:39:09.519Z,1016.59
2018-05-12T02:40:09.543Z,1016.61
2018-05-12T02:41:09.956Z,1016.62
2018-05-12T02:42:09.972Z,1016.59
2018-05-12T02:43:10.367Z,1016.57
2018-05-12T02:44:10.512Z,1016.64
2018-05-12T02:45:10.527Z,1016.65
2018-05-12T02:46:10.561Z,1016.65
2018-05-12T02:47:10.591Z,1016.65
2018-05-12T02:48:10.624Z,1016.7
2018-05-12T02:49:10.818Z,1016.68
2018-05-12T02:50:11.035Z,1016.69
2018-05-12T02:51:11.015Z,1016.7
2018-05-12T02:52:11.388Z,1016.7
2018-05-12T02:53:11.506Z,1016.7
2018-05-12T02:54:11.737Z,1016.71
2018-05-12T02:55:11.924Z,1016.71
2018-05-12T02:56:11.905Z,1016.67
2018-05-12T02:57:11.930Z,1016.72
2018-05-12T02:58:11.967Z,1016.68
2018-05-12T02:59:12.545Z,1016.67
2018-05-12T03:00:23.164Z,1016.7
2018-05-12T03:01:23.222Z,1016.66
2018-05-12T03:02:23.232Z,1016.7
2018-05-12T03:03:23.699Z,1016.69
2018-05-12T03:04:24.379Z,1016.7
2018-05-12T03:05:24.359Z,1016.64
2018-05-12T03:06:24.750Z,1016.6
2018-05-12T03:07:24.785Z,1016.62
2018-05-12T03:08:24.793Z,1016.58
2018-05-12T03:09:24.869Z,1016.58
2018-05-12T03:10:24.865Z,1016.58
2018-05-12T03:11:24.976Z,1016.56
2018-05-12T03:12:25.267Z,1016.58
2018-05-12T03:13:25.321Z,1016.55
2018-05-12T03:14:25.324Z,1016.58
2018-05-12T03:15:25.439Z,1016.53
2018-05-12T03:16:25.587Z,1016.62
2018-05-12T03:17:25.645Z,1016.64
2018-05-12T03:18:26.010Z,1016.59
2018-05-12T03:19:26.410Z,1016.65
2018-05-12T03:20:26.540Z,1016.59
2018-05-12T03:21:26.554Z,1016.62
2018-05-12T03:22:26.581Z,1016.6
2018-05-12T03:23:26.768Z,1016.61
2018-05-12T03:24:27.105Z,1016.61
2018-05-12T03:25:26.896Z,1016.61
2018-05-12T03:26:26.817Z,1016.61
2018-05-12T03:27:26.959Z,1016.59
2018-05-12T03:28:26.898Z,1016.59
2018-05-12T03:29:27.051Z,1016.56
2018-05-12T03:30:27.321Z,1016.59
2018-05-12T03:31:27.787Z,1016.56
2018-05-12T03:32:27.803Z,1016.57
2018-05-12T03:33:28.157Z,1016.57
2018-05-12T03:34:28.298Z,1016.59
2018-05-12T03:35:28.379Z,1016.58
2018-05-12T03:36:28.487Z,1016.63
2018-05-12T03:37:28.513Z,1016.59
2018-05-12T03:38:28.452Z,1016.64
2018-05-12T03:39:28.464Z,1016.55
2018-05-12T03:40:28.692Z,1016.56
2018-05-12T03:41:28.805Z,1016.55
2018-05-12T03:42:28.827Z,1016.52
2018-05-12T03:43:28.866Z,1016.56
2018-05-12T03:44:28.891Z,1016.52
2018-05-12T03:45:28.960Z,1016.49
2018-05-12T03:46:29.110Z,1016.49
2018-05-12T03:47:29.092Z,1016.45
2018-05-12T03:48:29.451Z,1016.47
2018-05-12T03:49:29.604Z,1016.48
2018-05-12T03:50:29.612Z,1016.43
2018-05-12T03:51:29.935Z,1016.41
2018-05-12T03:52:29.906Z,1016.41
2018-05-12T03:53:30.199Z,1016.38
2018-05-12T03:54:29.926Z,1016.4
2018-05-12T03:55:30.070Z,1016.38
2018-05-12T03:56:30.223Z,1016.39
2018-05-12T03:57:30.281Z,1016.38
2018-05-12T03:58:30.700Z,1016.39
2018-05-12T03:59:31.037Z,1016.35
2018-05-12T04:00:31.098Z,1016.38
2018-05-12T04:01:31.165Z,1016.4
2018-05-12T04:02:31.223Z,1016.38
2018-05-12T04:03:31.300Z,1016.41
2018-05-12T04:04:31.710Z,1016.35
2018-05-12T04:05:32.199Z,1016.38
2018-05-12T04:06:31.759Z,1016.34
2018-05-12T04:07:31.975Z,1016.36
2018-05-12T04:08:31.809Z,1016.36
2018-05-12T04:09:31.857Z,1016.37
2018-05-12T04:10:32.064Z,1016.39
2018-05-12T04:11:32.136Z,1016.33
2018-05-12T04:12:32.045Z,1016.3
2018-05-12T04:13:32.106Z,1016.29
2018-05-12T04:14:32.081Z,1016.25
2018-05-12T04:15:32.481Z,1016.19
2018-05-12T04:16:32.541Z,1016.18
2018-05-12T04:17:32.531Z,1016.18
2018-05-12T04:18:32.604Z,1016.24
2018-05-12T04:19:32.638Z,1016.27
2018-05-12T04:20:32.879Z,1016.24
2018-05-12T04:21:32.908Z,1016.3
2018-05-12T04:22:32.991Z,1016.29
2018-05-12T04:23:33.048Z,1016.29
2018-05-12T04:24:32.995Z,1016.33
2018-05-12T04:25:33.219Z,1016.32
2018-05-12T04:26:33.242Z,1016.34
2018-05-12T04:27:33.278Z,1016.39
2018-05-12T04:28:33.305Z,1016.39
2018-05-12T04:29:33.353Z,1016.39
2018-05-12T04:30:33.392Z,1016.4
2018-05-12T04:31:33.390Z,1016.36
2018-05-12T04:32:33.602Z,1016.43
2018-05-12T04:33:33.669Z,1016.41
2018-05-12T04:34:33.662Z,1016.43
2018-05-12T04:35:33.687Z,1016.42
2018-05-12T04:36:33.731Z,1016.4
2018-05-12T04:37:33.966Z,1016.35
2018-05-12T04:38:34.181Z,1016.36
2018-05-12T04:39:34.208Z,1016.39
2018-05-12T04:40:34.235Z,1016.35
2018-05-12T04:41:34.267Z,1016.45
2018-05-12T04:42:34.312Z,1016.36
2018-05-12T04:43:34.334Z,1016.37
2018-05-12T04:44:34.363Z,1016.38
2018-05-12T04:45:34.484Z,1016.34
2018-05-12T04:46:34.599Z,1016.42
2018-05-12T04:47:34.566Z,1016.38
2018-05-12T04:48:34.587Z,1016.36
2018-05-12T04:49:34.619Z,1016.4
2018-05-12T04:50:34.899Z,1016.41
2018-05-12T04:51:34.929Z,1016.42
2018-05-12T04:52:34.964Z,1016.44
2018-05-12T04:53:35.180Z,1016.5
2018-05-12T04:54:35.210Z,1016.47
2018-05-12T04:55:35.238Z,1016.52
2018-05-12T04:56:35.270Z,1016.52
2018-05-12T04:57:35.515Z,1016.52
2018-05-12T04:58:35.530Z,1016.48
2018-05-12T04:59:35.728Z,1016.5
2018-05-12T05:00:35.763Z,1016.49
2018-05-12T05:01:35.793Z,1016.53
2018-05-12T05:02:35.924Z,1016.52
2018-05-12T05:03:35.962Z,1016.52
2018-05-12T05:04:35.981Z,1016.53
2018-05-12T05:05:36.024Z,1016.52
2018-05-12T05:06:36.046Z,1016.58
2018-05-12T05:07:36.082Z,1016.57
2018-05-12T05:08:36.106Z,1016.57
2018-05-12T05:09:36.145Z,1016.62
2018-05-12T05:10:36.294Z,1016.54
2018-05-12T05:11:36.689Z,1016.6
2018-05-12T05:12:36.713Z,1016.6
2018-05-12T05:13:37.150Z,1016.66
2018-05-12T05:14:37.595Z,1016.65
2018-05-12T05:15:37.623Z,1016.71
2018-05-12T05:16:37.656Z,1016.76
2018-05-12T05:17:37.674Z,1016.76
2018-05-12T05:18:37.722Z,1016.76
2018-05-12T05:19:37.979Z,1016.8
2018-05-12T05:20:38.016Z,1016.79
2018-05-12T05:21:38.053Z,1016.77
2018-05-12T05:22:38.487Z,1016.73
2018-05-12T05:23:38.708Z,1016.67
2018-05-12T05:24:38.623Z,1016.72
2018-05-12T05:25:39.004Z,1016.7
2018-05-12T05:26:39.020Z,1016.73
2018-05-12T05:27:39.526Z,1016.78
2018-05-12T05:28:39.505Z,1016.74
2018-05-12T05:29:39.741Z,1016.79
2018-05-12T05:30:39.553Z,1016.79
2018-05-12T05:31:39.828Z,1016.72
2018-05-12T05:32:40.005Z,1016.79
2018-05-12T05:33:39.870Z,1016.73
2018-05-12T05:34:39.897Z,1016.75
2018-05-12T05:35:40.176Z,1016.72
2018-05-12T05:36:39.862Z,1016.7
2018-05-12T05:37:39.907Z,1016.77
2018-05-12T05:38:39.933Z,1016.74
2018-05-12T05:39:40.076Z,1016.75
2018-05-12T05:40:40.178Z,1016.73
2018-05-12T05:41:40.605Z,1016.78
2018-05-12T05:42:40.621Z,1016.8
2018-05-12T05:43:40.656Z,1016.81
2018-05-12T05:44:40.774Z,1016.83
2018-05-12T05:45:41.185Z,1016.81
2018-05-12T05:46:41.207Z,1016.85
2018-05-12T05:47:41.580Z,1016.86
2018-05-12T05:48:42.006Z,1016.88
2018-05-12T05:49:42.023Z,1016.83
2018-05-12T05:50:42.482Z,1016.82
2018-05-12T05:51:42.523Z,1016.79
2018-05-12T05:52:42.528Z,1016.86
2018-05-12T05:53:42.705Z,1016.82
2018-05-12T05:54:42.860Z,1016.81
2018-05-12T05:55:43.065Z,1016.82
2018-05-12T05:56:43.529Z,1016.82
2018-05-12T05:57:43.658Z,1016.8
2018-05-12T05:58:44.060Z,1016.8
2018-05-12T05:59:44.458Z,1016.87
2018-05-12T06:00:44.629Z,1016.87
2018-05-12T06:01:44.744Z,1016.86
2018-05-12T06:02:44.707Z,1016.9
2018-05-12T06:03:45.047Z,1016.89
2018-05-12T06:04:45.077Z,1016.91
2018-05-12T06:05:45.117Z,1016.92
2018-05-12T06:06:45.400Z,1016.88
2018-05-12T06:07:45.418Z,1016.86
2018-05-12T06:08:45.573Z,1016.91
2018-05-12T06:09:45.487Z,1016.88
2018-05-12T06:10:45.565Z,1016.9
2018-05-12T06:11:46.380Z,1016.92
2018-05-12T06:12:46.167Z,1016.92
2018-05-12T06:13:46.433Z,1016.91
2018-05-12T06:14:46.478Z,1016.92
2018-05-12T06:15:46.505Z,1016.94
2018-05-12T06:16:46.539Z,1016.9
2018-05-12T06:17:46.574Z,1016.91
2018-05-12T06:18:46.614Z,1016.93
2018-05-12T06:19:46.636Z,1016.9
2018-05-12T06:20:47.099Z,1016.9
2018-05-12T06:21:47.133Z,1016.93
2018-05-12T06:22:47.156Z,1016.91
2018-05-12T06:23:47.254Z,1016.93
2018-05-12T06:24:47.226Z,1016.88
2018-05-12T06:25:47.270Z,1016.9
2018-05-12T06:26:47.293Z,1016.9
2018-05-12T06:27:47.321Z,1016.95
2018-05-12T06:28:47.363Z,1016.9
2018-05-12T06:29:47.389Z,1016.92
2018-05-12T06:30:47.419Z,1016.89
2018-05-12T06:31:47.449Z,1016.89
2018-05-12T06:32:47.908Z,1016.95
2018-05-12T06:33:47.941Z,1016.87
2018-05-12T06:34:47.997Z,1016.89
2018-05-12T06:35:48.016Z,1016.92
2018-05-12T06:36:48.038Z,1016.86
2018-05-12T06:37:48.075Z,1016.85
2018-05-12T06:38:48.290Z,1016.88
2018-05-12T06:39:48.326Z,1016.88
2018-05-12T06:40:48.353Z,1016.91
2018-05-12T06:41:48.390Z,1016.89
2018-05-12T06:42:48.418Z,1016.94
2018-05-12T06:43:48.455Z,1016.92
2018-05-12T06:44:48.488Z,1016.89
2018-05-12T06:45:48.522Z,1016.89
2018-05-12T06:46:48.563Z,1016.9
2018-05-12T06:47:48.588Z,1016.93
2018-05-12T06:48:48.795Z,1016.91
2018-05-12T06:49:48.832Z,1016.92
2018-05-12T06:50:49.035Z,1016.92
2018-05-12T06:51:49.086Z,1016.91
2018-05-12T06:52:49.251Z,1016.9
2018-05-12T06:53:49.380Z,1016.93
2018-05-12T06:54:49.414Z,1016.94
2018-05-12T06:55:49.921Z,1016.94
2018-05-12T06:56:49.940Z,1016.9
2018-05-12T06:57:49.977Z,1016.94
2018-05-12T06:58:49.996Z,1016.92
2018-05-12T06:59:50.144Z,1016.89
2018-05-12T07:00:50.074Z,1016.88
2018-05-12T07:01:50.418Z,1016.9
2018-05-12T07:02:50.247Z,1016.91
2018-05-12T07:03:50.355Z,1016.91
2018-05-12T07:04:50.220Z,1016.86
2018-05-12T07:05:50.317Z,1016.94
2018-05-12T07:06:50.284Z,1016.88
2018-05-12T07:07:50.779Z,1017
2018-05-12T07:08:50.727Z,1016.95
2018-05-12T07:09:50.762Z,1016.93
2018-05-12T07:10:50.804Z,1016.94
2018-05-12T07:11:50.833Z,1016.99
2018-05-12T07:12:50.895Z,1016.97
2018-05-12T07:13:50.928Z,1016.96
2018-05-12T07:14:51.125Z,1016.98
2018-05-12T07:15:51.158Z,1017.01
2018-05-12T07:16:51.815Z,1016.98
2018-05-12T07:17:51.691Z,1016.98
2018-05-12T07:18:51.705Z,1016.99
2018-05-12T07:19:51.734Z,1016.95
2018-05-12T07:20:51.770Z,1016.99
2018-05-12T07:21:51.804Z,1016.95
2018-05-12T07:22:51.890Z,1016.89
2018-05-12T07:23:51.938Z,1016.92
2018-05-12T07:24:51.944Z,1016.94
2018-05-12T07:25:51.944Z,1016.93
2018-05-12T07:26:52.438Z,1016.93
2018-05-12T07:27:52.545Z,1016.93
2018-05-12T07:28:52.508Z,1016.89
2018-05-12T07:29:53.039Z,1016.92
2018-05-12T07:30:53.081Z,1016.94
2018-05-12T07:31:53.565Z,1016.96
2018-05-12T07:32:53.603Z,1016.98
2018-05-12T07:33:53.635Z,1017.03
2018-05-12T07:34:53.669Z,1017.09
2018-05-12T07:35:53.782Z,1017.17
2018-05-12T07:36:53.743Z,1017.22
2018-05-12T07:37:53.773Z,1017.12
2018-05-12T07:38:54.118Z,1017.07
2018-05-12T07:39:54.151Z,1017.12
2018-05-12T07:40:54.185Z,1017.06
2018-05-12T07:41:54.219Z,1017.07
2018-05-12T07:42:54.696Z,1017.03
2018-05-12T07:43:54.728Z,1017.1
2018-05-12T07:44:54.804Z,1017.05
2018-05-12T07:45:55.173Z,1017.04
2018-05-12T07:46:55.211Z,1017.15
2018-05-12T07:47:55.546Z,1017.16
2018-05-12T07:48:55.599Z,1016.95
2018-05-12T07:49:55.837Z,1016.91
2018-05-12T07:50:55.871Z,1016.85
2018-05-12T07:51:55.897Z,1016.89
2018-05-12T07:52:55.952Z,1017.18
2018-05-12T07:53:56.461Z,1016.93
2018-05-12T07:54:56.062Z,1016.83
2018-05-12T07:55:56.113Z,1016.83
2018-05-12T07:56:56.099Z,1016.78
2018-05-12T07:57:56.206Z,1016.82
2018-05-12T07:58:56.194Z,1016.78
2018-05-12T07:59:56.224Z,1016.75
2018-05-12T08:00:56.251Z,1016.75
2018-05-12T08:01:56.403Z,1016.72
2018-05-12T08:02:56.785Z,1016.7
2018-05-12T08:03:57.040Z,1016.74
2018-05-12T08:04:57.462Z,1017.13
2018-05-12T08:05:57.478Z,1016.98
2018-05-12T08:06:57.520Z,1016.8
2018-05-12T08:07:57.604Z,1017.14
2018-05-12T08:08:57.595Z,1017.18
2018-05-12T08:09:57.657Z,1016.68
2018-05-12T08:10:57.775Z,1016.89
2018-05-12T08:11:57.773Z,1016.88
2018-05-12T08:12:57.803Z,1017.17
2018-05-12T08:13:58.098Z,1017.22
2018-05-12T08:14:57.929Z,1017.13
2018-05-12T08:15:57.863Z,1016.56
2018-05-12T08:16:58.144Z,1016.56
2018-05-12T08:17:58.185Z,1016.65
2018-05-12T08:18:58.406Z,1017.18
2018-05-12T08:19:58.449Z,1017.17
2018-05-12T08:20:58.494Z,1016.56
2018-05-12T08:21:58.534Z,1016.62
2018-05-12T08:22:58.651Z,1016.74
2018-05-12T08:23:58.611Z,1017.22
2018-05-12T08:24:58.805Z,1016.5
2018-05-12T08:25:59.191Z,1016.51
2018-05-12T08:26:59.282Z,1017.2
2018-05-12T08:27:59.326Z,1016.65
2018-05-12T08:28:59.363Z,1016.6
2018-05-12T08:29:59.614Z,1016.56
2018-05-12T08:30:59.704Z,1016.58
2018-05-12T08:31:59.706Z,1016.95
2018-05-12T08:32:59.996Z,1017.2
2018-05-12T08:34:00.472Z,1016.53
2018-05-12T08:35:00.576Z,1017.16
2018-05-12T08:36:00.532Z,1017.15
2018-05-12T08:37:00.875Z,1016.61
2018-05-12T08:38:00.576Z,1016.85
2018-05-12T08:39:00.864Z,1016.64
2018-05-12T08:40:00.871Z,1016.72
2018-05-12T08:41:01.012Z,1016.53
2018-05-12T08:42:01.058Z,1017.01
2018-05-12T08:43:01.096Z,1016.47
2018-05-12T08:44:01.137Z,1016.55
2018-05-12T08:45:01.520Z,1016.55
2018-05-12T08:46:01.338Z,1016.86
2018-05-12T08:47:01.255Z,1016.65
2018-05-12T08:48:01.707Z,1016.53
2018-05-12T08:49:01.509Z,1016.57
2018-05-12T08:50:01.555Z,1016.58
2018-05-12T08:51:01.609Z,1016.69
2018-05-12T08:52:01.731Z,1016.76
2018-05-12T08:53:01.980Z,1017.18
2018-05-12T08:54:02.025Z,1017.3
2018-05-12T08:55:02.263Z,1017.22
2018-05-12T08:56:02.310Z,1016.92
2018-05-12T08:57:02.329Z,1016.98
2018-05-12T08:58:02.365Z,1017.06
2018-05-12T08:59:02.627Z,1016.75
2018-05-12T09:00:07.324Z,1017.13
2018-05-12T09:01:02.773Z,1016.33
2018-05-12T09:02:02.992Z,1016.29
2018-05-12T09:03:03.444Z,1016.3
2018-05-12T09:04:04.118Z,1016.28
2018-05-12T09:05:04.522Z,1016.31
2018-05-12T09:06:04.798Z,1016.35
2018-05-12T09:07:05.121Z,1016.59
2018-05-12T09:08:05.182Z,1016.43
2018-05-12T09:09:05.250Z,1017.11
2018-05-12T09:10:05.430Z,1016.32
2018-05-12T09:11:05.735Z,1016.26
2018-05-12T09:12:05.539Z,1016.25
2018-05-12T09:13:05.549Z,1016.37
2018-05-12T09:14:05.577Z,1016.38
2018-05-12T09:15:05.663Z,1016.38
2018-05-12T09:16:05.668Z,1016.34
2018-05-12T09:17:05.700Z,1016.23
2018-05-12T09:18:05.736Z,1016.28
2018-05-12T09:19:05.834Z,1016.79
2018-05-12T09:20:06.011Z,1016.52
2018-05-12T09:21:05.864Z,1017.17
2018-05-12T09:22:05.987Z,1017.13
2018-05-12T09:23:05.959Z,1016.99
2018-05-12T09:24:05.977Z,1016.93
2018-05-12T09:25:06.011Z,1017.01
2018-05-12T09:26:06.067Z,1016.98
2018-05-12T09:27:06.172Z,1016.98
2018-05-12T09:28:06.133Z,1016.25
2018-05-12T09:29:06.302Z,1016.2
2018-05-12T09:30:06.266Z,1016.2
2018-05-12T09:31:06.715Z,1016.28
2018-05-12T09:32:07.100Z,1016.35
2018-05-12T09:33:06.851Z,1016.61
2018-05-12T09:34:07.120Z,1016.98
2018-05-12T09:35:07.120Z,1017.01
2018-05-12T09:36:06.952Z,1016.95
2018-05-12T09:37:07.350Z,1017.02
2018-05-12T09:38:07.338Z,1016.19
2018-05-12T09:39:07.121Z,1016.1
2018-05-12T09:40:07.329Z,1016.1
2018-05-12T09:41:07.477Z,1016.13
2018-05-12T09:42:07.450Z,1016.15
2018-05-12T09:43:07.521Z,1016.14
2018-05-12T09:44:07.269Z,1016.22
2018-05-12T09:45:07.275Z,1016.27
2018-05-12T09:46:07.319Z,1016.68
2018-05-12T09:47:07.779Z,1016.32
2018-05-12T09:48:07.940Z,1017.1
2018-05-12T09:49:07.861Z,1017
2018-05-12T09:50:07.908Z,1017.02
2018-05-12T09:51:07.941Z,1016.67
2018-05-12T09:52:07.983Z,1017.09
2018-05-12T09:53:08.015Z,1016.93
2018-05-12T09:54:08.148Z,1016.92
2018-05-12T09:55:08.516Z,1016.8
2018-05-12T09:56:08.658Z,1016.84
2018-05-12T09:57:08.982Z,1016.87
2018-05-12T09:58:09.214Z,1016.87
2018-05-12T09:59:09.652Z,1016.89
2018-05-12T10:00:12.720Z,1016.44
2018-05-12T10:01:09.788Z,1016.77
2018-05-12T10:02:10.174Z,1016.84
2018-05-12T10:03:10.538Z,1016.85
2018-05-12T10:04:10.943Z,1016.98
2018-05-12T10:05:10.976Z,1016.35
2018-05-12T10:06:11.021Z,1016.88
2018-05-12T10:07:11.420Z,1016.64
2018-05-12T10:08:11.457Z,1015.99
2018-05-12T10:09:11.497Z,1016.03
2018-05-12T10:10:11.538Z,1016.1
2018-05-12T10:11:11.746Z,1016.1
2018-05-12T10:12:12.596Z,1016.21
2018-05-12T10:13:12.475Z,1016.16
2018-05-12T10:14:12.985Z,1016.13
2018-05-12T10:15:13.006Z,1016.19
2018-05-12T10:16:13.031Z,1016.22
2018-05-12T10:17:13.087Z,1016.71
2018-05-12T10:18:13.129Z,1016.38
2018-05-12T10:19:13.172Z,1016.24
2018-05-12T10:20:13.241Z,1016.7
2018-05-12T10:21:13.286Z,1017
2018-05-12T10:22:13.325Z,1016.91
2018-05-12T10:23:13.375Z,1017.06
2018-05-12T10:24:13.739Z,1017.07
2018-05-12T10:25:13.898Z,1017.09
2018-05-12T10:26:13.934Z,1016
2018-05-12T10:27:13.975Z,1016.16
2018-05-12T10:28:14.246Z,1016.12
2018-05-12T10:29:14.152Z,1016.31
2018-05-12T10:30:14.132Z,1016.21
2018-05-12T10:31:14.126Z,1016.36
2018-05-12T10:32:14.166Z,1016.33
2018-05-12T10:33:14.304Z,1016.13
2018-05-12T10:34:14.467Z,1016.25
2018-05-12T10:35:14.492Z,1016.16
2018-05-12T10:36:14.633Z,1016.06
2018-05-12T10:37:14.563Z,1016.05
2018-05-12T10:38:15.013Z,1016.02
2018-05-12T10:39:15.010Z,1016.01
2018-05-12T10:40:15.042Z,1016.05
2018-05-12T10:41:15.461Z,1016.06
2018-05-12T10:42:15.676Z,1016.04
2018-05-12T10:43:15.783Z,1015.94
2018-05-12T10:44:15.945Z,1015.97
2018-05-12T10:45:16.081Z,1015.92
2018-05-12T10:46:16.361Z,1015.89
2018-05-12T10:47:16.399Z,1015.91
2018-05-12T10:48:16.528Z,1015.94
2018-05-12T10:49:16.560Z,1015.95
2018-05-12T10:50:16.986Z,1015.93
2018-05-12T10:51:17.028Z,1015.91
2018-05-12T10:52:17.027Z,1015.91
2018-05-12T10:53:17.379Z,1015.9
2018-05-12T10:54:17.373Z,1015.89
2018-05-12T10:55:17.813Z,1015.91
2018-05-12T10:56:18.139Z,1015.93
2018-05-12T10:57:18.116Z,1015.87
2018-05-12T10:58:18.177Z,1015.92
2018-05-12T10:59:18.602Z,1015.92
2018-05-12T11:00:22.443Z,1015.85
2018-05-12T11:01:22.521Z,1015.88
2018-05-12T11:02:22.224Z,1015.88
2018-05-12T11:03:22.627Z,1015.83
2018-05-12T11:04:22.660Z,1015.9
2018-05-12T11:05:23.086Z,1015.89
2018-05-12T11:06:23.123Z,1015.85
2018-05-12T11:07:23.156Z,1015.9
2018-05-12T11:08:23.299Z,1015.91
2018-05-12T11:09:23.478Z,1015.91
2018-05-12T11:10:23.780Z,1015.83
2018-05-12T11:11:23.942Z,1015.82
2018-05-12T11:12:24.436Z,1015.8
2018-05-12T11:13:24.474Z,1015.77
2018-05-12T11:14:24.625Z,1015.78
2018-05-12T11:15:25.024Z,1015.75
2018-05-12T11:16:25.148Z,1015.66
2018-05-12T11:17:25.183Z,1015.68
2018-05-12T11:18:25.447Z,1015.68
2018-05-12T11:19:25.620Z,1015.61
2018-05-12T11:20:25.665Z,1015.65
2018-05-12T11:21:26.331Z,1015.67
2018-05-12T11:22:26.241Z,1015.67
2018-05-12T11:23:26.652Z,1015.67
2018-05-12T11:24:27.039Z,1015.65
2018-05-12T11:25:27.064Z,1015.63
2018-05-12T11:26:27.171Z,1015.67
2018-05-12T11:27:27.205Z,1015.62
2018-05-12T11:28:27.520Z,1015.62
2018-05-12T11:29:27.324Z,1015.65
2018-05-12T11:30:27.478Z,1015.61
2018-05-12T11:31:27.896Z,1015.58
2018-05-12T11:32:28.316Z,1015.55
2018-05-12T11:33:28.765Z,1015.51
2018-05-12T11:34:28.828Z,1015.57
2018-05-12T11:35:29.213Z,1015.54
2018-05-12T11:36:29.592Z,1015.58
2018-05-12T11:37:30.024Z,1015.56
2018-05-12T11:38:30.038Z,1015.55
2018-05-12T11:39:30.090Z,1015.47
2018-05-12T11:40:30.132Z,1015.48
2018-05-12T11:41:30.276Z,1015.45
2018-05-12T11:42:30.452Z,1015.46
2018-05-12T11:43:30.822Z,1015.41
2018-05-12T11:44:30.881Z,1015.44
2018-05-12T11:45:30.889Z,1015.43
2018-05-12T11:46:31.034Z,1015.36
2018-05-12T11:47:31.104Z,1015.42
2018-05-12T11:48:31.339Z,1015.37
2018-05-12T11:49:31.371Z,1015.34
2018-05-12T11:50:31.400Z,1015.36
2018-05-12T11:51:31.549Z,1015.4
2018-05-12T11:52:31.494Z,1015.34
2018-05-12T11:53:31.504Z,1015.36
2018-05-12T11:54:31.672Z,1015.38
2018-05-12T11:55:31.685Z,1015.38
2018-05-12T11:56:31.700Z,1015.28
2018-05-12T11:57:32.132Z,1015.27
2018-05-12T11:58:32.285Z,1015.33
2018-05-12T11:59:32.305Z,1015.27
2018-05-12T12:00:32.347Z,1015.29
2018-05-12T12:01:32.728Z,1015.24
2018-05-12T12:02:32.920Z,1015.27
2018-05-12T12:03:32.863Z,1015.34
2018-05-12T12:04:32.896Z,1015.26
2018-05-12T12:05:33.046Z,1015.22
2018-05-12T12:06:33.195Z,1015.18
2018-05-12T12:07:33.615Z,1015.25
2018-05-12T12:08:34.028Z,1015.22
2018-05-12T12:09:34.061Z,1015.18
2018-05-12T12:10:34.211Z,1015.23
2018-05-12T12:11:34.242Z,1015.15
2018-05-12T12:12:34.378Z,1015.14
2018-05-12T12:13:34.540Z,1015.22
2018-05-12T12:14:34.716Z,1015.22
2018-05-12T12:15:35.116Z,1015.2
2018-05-12T12:16:35.219Z,1015.12
2018-05-12T12:17:35.200Z,1015.07
2018-05-12T12:18:35.247Z,1015.18
2018-05-12T12:19:35.274Z,1015.09
2018-05-12T12:20:35.700Z,1015.13
2018-05-12T12:21:35.724Z,1015.09
2018-05-12T12:22:35.891Z,1015.07
2018-05-12T12:23:35.927Z,1015.08
2018-05-12T12:24:35.964Z,1015.02
2018-05-12T12:25:36.379Z,1014.99
2018-05-12T12:26:36.802Z,1015.02
2018-05-12T12:27:36.869Z,1014.97
2018-05-12T12:28:36.884Z,1014.92
2018-05-12T12:29:36.913Z,1014.96
2018-05-12T12:30:37.250Z,1014.94
2018-05-12T12:31:37.019Z,1014.85
2018-05-12T12:32:37.046Z,1014.84
2018-05-12T12:33:37.496Z,1014.92
2018-05-12T12:34:37.725Z,1014.85
2018-05-12T12:35:37.564Z,1014.79
2018-05-12T12:36:37.593Z,1014.73
2018-05-12T12:37:38.295Z,1014.8
2018-05-12T12:38:38.224Z,1014.84
2018-05-12T12:39:38.251Z,1014.85
2018-05-12T12:40:38.291Z,1014.77
2018-05-12T12:41:38.455Z,1014.74
2018-05-12T12:42:38.985Z,1014.7
2018-05-12T12:43:38.927Z,1014.73
2018-05-12T12:44:39.070Z,1014.75
2018-05-12T12:45:39.158Z,1014.7
2018-05-12T12:46:39.249Z,1014.64
2018-05-12T12:47:39.207Z,1014.64
2018-05-12T12:48:39.233Z,1014.64
2018-05-12T12:49:39.338Z,1014.66
2018-05-12T12:50:39.480Z,1014.64
2018-05-12T12:51:39.515Z,1014.74
2018-05-12T12:52:39.485Z,1014.69
2018-05-12T12:53:39.447Z,1014.69
2018-05-12T12:54:39.478Z,1014.62
2018-05-12T12:55:39.497Z,1014.57
2018-05-12T12:56:39.680Z,1014.64
2018-05-12T12:57:39.805Z,1014.62
2018-05-12T12:58:40.002Z,1014.58
2018-05-12T12:59:40.255Z,1014.54
2018-05-12T13:00:40.285Z,1014.54
2018-05-12T13:01:40.821Z,1014.53
2018-05-12T13:02:40.646Z,1014.51
2018-05-12T13:03:40.634Z,1014.53
2018-05-12T13:04:40.711Z,1014.54
2018-05-12T13:05:40.697Z,1014.45
2018-05-12T13:06:40.773Z,1014.48
2018-05-12T13:07:40.760Z,1014.53
2018-05-12T13:08:41.248Z,1014.43
2018-05-12T13:09:41.774Z,1014.42
2018-05-12T13:10:41.905Z,1014.43
2018-05-12T13:11:42.054Z,1014.45
2018-05-12T13:12:42.189Z,1014.35
2018-05-12T13:13:42.222Z,1014.37
2018-05-12T13:14:42.263Z,1014.39
2018-05-12T13:15:42.302Z,1014.36
2018-05-12T13:16:42.505Z,1014.32
2018-05-12T13:17:42.671Z,1014.31
2018-05-12T13:18:42.787Z,1014.39
2018-05-12T13:19:42.813Z,1014.36
2018-05-12T13:20:42.868Z,1014.34
2018-05-12T13:21:42.884Z,1014.3
2018-05-12T13:22:43.125Z,1014.31
2018-05-12T13:23:43.135Z,1014.25
2018-05-12T13:24:43.591Z,1014.24
2018-05-12T13:25:44.010Z,1014.22
2018-05-12T13:26:44.693Z,1014.22
2018-05-12T13:27:45.224Z,1014.25
2018-05-12T13:28:45.164Z,1014.21
2018-05-12T13:29:45.638Z,1014.16
2018-05-12T13:30:45.756Z,1014.19
2018-05-12T13:31:46.028Z,1014.17
2018-05-12T13:32:46.207Z,1014.16
2018-05-12T13:33:46.254Z,1014.11
2018-05-12T13:34:46.274Z,1014.11
2018-05-12T13:35:46.314Z,1014.02
2018-05-12T13:36:46.363Z,1014.06
2018-05-12T13:37:46.773Z,1014.07
2018-05-12T13:38:47.199Z,1014.02
2018-05-12T13:39:47.234Z,1014.03
2018-05-12T13:40:47.652Z,1014.02
2018-05-12T13:41:47.679Z,1013.95
2018-05-12T13:42:47.819Z,1013.97
2018-05-12T13:43:47.857Z,1013.88
2018-05-12T13:44:47.897Z,1013.91
2018-05-12T13:45:48.032Z,1013.9
2018-05-12T13:46:48.447Z,1013.89
2018-05-12T13:47:48.649Z,1013.98
2018-05-12T13:48:48.966Z,1013.91
2018-05-12T13:49:48.979Z,1013.88
2018-05-12T13:50:49.018Z,1013.93
2018-05-12T13:51:49.074Z,1013.86
2018-05-12T13:52:49.090Z,1013.86
2018-05-12T13:53:49.464Z,1013.95
2018-05-12T13:54:49.498Z,1013.89
2018-05-12T13:55:49.931Z,1013.89
2018-05-12T13:56:50.175Z,1013.91
2018-05-12T13:57:50.555Z,1013.99
2018-05-12T13:58:50.580Z,1013.89
2018-05-12T13:59:50.610Z,1013.89
2018-05-12T14:00:50.652Z,1013.86
2018-05-12T14:01:51.346Z,1013.85
2018-05-12T14:02:51.193Z,1013.86
2018-05-12T14:03:51.390Z,1013.8
2018-05-12T14:04:51.443Z,1013.84
2018-05-12T14:05:51.878Z,1013.8
2018-05-12T14:06:51.891Z,1013.81
2018-05-12T14:07:51.931Z,1013.77
2018-05-12T14:08:51.966Z,1013.74
2018-05-12T14:09:52.459Z,1013.87